createdAt,value
2017-05-16T00:00:03.118Z,1027.4
2017-05-16T00:05:03.613Z,1027.35
2017-05-16T00:10:03.296Z,1027.34
2017-05-16T00:15:03.197Z,1027.36
2017-05-16T00:20:02.786Z,1027.33
2017-05-16T00:25:03.432Z,1027.32
2017-05-16T00:30:03.216Z,1027.29
2017-05-16T00:35:02.896Z,1027.27
2017-05-16T00:40:02.789Z,1027.27
2017-05-16T00:45:03.361Z,1027.16
2017-05-16T00:50:03.122Z,1027.13
2017-05-16T00:55:02.880Z,1027.08
2017-05-16T01:00:02.704Z,1027.08
2017-05-16T01:05:03.315Z,1027.01
2017-05-16T01:10:03.116Z,1026.96
2017-05-16T01:15:09.771Z,1026.96
2017-05-16T01:20:03.491Z,1026.96
2017-05-16T01:25:03.342Z,1026.92
2017-05-16T01:30:03.194Z,1026.92
2017-05-16T01:35:02.939Z,1026.89
2017-05-16T01:40:02.850Z,1026.82
2017-05-16T01:45:03.529Z,1026.78
2017-05-16T01:50:03.347Z,1026.71
2017-05-16T01:55:02.961Z,1026.71
2017-05-16T02:00:03.529Z,1026.77
2017-05-16T02:05:03.192Z,1026.74
2017-05-16T02:10:03.164Z,1026.78
2017-05-16T02:15:02.788Z,1026.75
2017-05-16T02:20:03.563Z,1026.68
2017-05-16T02:25:03.283Z,1026.62
2017-05-16T02:30:02.903Z,1026.71
2017-05-16T02:35:02.745Z,1026.65
2017-05-16T02:40:03.382Z,1026.66
2017-05-16T02:45:02.929Z,1026.67
2017-05-16T02:50:02.738Z,1026.7
2017-05-16T02:55:03.303Z,1026.69
2017-05-16T03:00:03.136Z,1026.74
2017-05-16T03:05:02.983Z,1026.69
2017-05-16T03:10:02.895Z,1026.69
2017-05-16T03:15:03.636Z,1026.69
2017-05-16T03:20:03.502Z,1026.67
2017-05-16T03:25:03.278Z,1026.68
2017-05-16T03:30:02.898Z,1026.67
2017-05-16T03:35:03.544Z,1026.59
2017-05-16T03:40:03.220Z,1026.6
2017-05-16T03:45:03.044Z,1026.63
2017-05-16T03:50:02.922Z,1026.64
2017-05-16T03:55:02.946Z,1026.6
2017-05-16T04:00:02.708Z,1026.63
2017-05-16T04:05:03.278Z,1026.59
2017-05-16T04:10:03.144Z,1026.63
2017-05-16T04:15:05.929Z,1026.66
2017-05-16T04:20:02.714Z,1026.65
2017-05-16T04:25:03.534Z,1026.65
2017-05-16T04:30:03.117Z,1026.55
2017-05-16T04:35:02.869Z,1026.53
2017-05-16T04:40:03.519Z,1026.57
2017-05-16T04:45:03.356Z,1026.59
2017-05-16T04:50:03.162Z,1026.63
2017-05-16T04:55:02.959Z,1026.63
2017-05-16T05:00:02.758Z,1026.62
2017-05-16T05:05:03.606Z,1026.59
2017-05-16T05:10:03.246Z,1026.7
2017-05-16T05:15:03.048Z,1026.7
2017-05-16T05:20:02.709Z,1026.73
2017-05-16T05:25:03.508Z,1026.81
2017-05-16T05:30:03.337Z,1026.76
2017-05-16T05:35:03.004Z,1026.79
2017-05-16T05:40:02.860Z,1026.82
2017-05-16T05:45:02.656Z,1026.83
2017-05-16T05:50:03.520Z,1026.89
2017-05-16T05:55:03.313Z,1026.83
2017-05-16T06:00:03.150Z,1026.92
2017-05-16T06:05:02.703Z,1026.9
2017-05-16T06:10:03.385Z,1026.91
2017-05-16T06:15:03.017Z,1026.88
2017-05-16T06:20:02.794Z,1026.9
2017-05-16T06:25:03.386Z,1026.86
2017-05-16T06:30:03.238Z,1026.93
2017-05-16T06:35:03.080Z,1027.01
2017-05-16T06:40:02.911Z,1026.94
2017-05-16T06:45:03.519Z,1026.97
2017-05-16T06:50:03.322Z,1027
2017-05-16T06:55:02.897Z,1027.07
2017-05-16T07:00:03.493Z,1027.03
2017-05-16T07:05:03.343Z,1027.15
2017-05-16T07:10:03.013Z,1027.14
2017-05-16T07:15:02.924Z,1027.16
2017-05-16T07:20:02.797Z,1027.23
2017-05-16T07:25:03.371Z,1027.26
2017-05-16T07:30:02.951Z,1027.16
2017-05-16T07:35:02.665Z,1027.23
2017-05-16T07:40:03.278Z,1027.21
2017-05-16T07:45:03.492Z,1027.07
2017-05-16T07:50:03.221Z,1027.12
2017-05-16T07:55:02.932Z,1027.19
2017-05-16T08:00:02.713Z,1027.24
2017-05-16T08:05:03.454Z,1027.24
2017-05-16T08:10:03.104Z,1027.24
2017-05-16T08:15:02.911Z,1027.22
2017-05-16T08:20:02.943Z,1027.14
2017-05-16T08:25:03.306Z,1027.11
2017-05-16T08:30:03.617Z,1027.08
2017-05-16T08:35:03.613Z,1026.98
2017-05-16T08:40:03.142Z,1027.13
2017-05-16T08:45:03.206Z,1027.1
2017-05-16T08:50:02.744Z,1027.21
2017-05-16T08:55:03.558Z,1027
2017-05-16T09:00:03.019Z,1026.91
2017-05-16T09:05:03.516Z,1026.96
2017-05-16T09:10:03.082Z,1027.06
2017-05-16T09:15:02.908Z,1027.02
2017-05-16T09:20:03.606Z,1026.97
2017-05-16T09:25:02.823Z,1026.85
2017-05-16T09:30:03.044Z,1026.87
2017-05-16T09:35:02.887Z,1026.92
2017-05-16T09:40:03.429Z,1026.77
2017-05-16T09:45:02.792Z,1026.83
2017-05-16T09:50:03.415Z,1026.78
2017-05-16T09:55:02.883Z,1026.8
2017-05-16T10:00:03.005Z,1026.74
2017-05-16T10:05:03.229Z,1026.71
2017-05-16T10:10:02.702Z,1026.69
2017-05-16T10:15:02.918Z,1026.66
2017-05-16T10:20:02.769Z,1026.6
2017-05-16T10:25:02.852Z,1026.62
2017-05-16T10:30:03.270Z,1026.6
2017-05-16T10:35:03.451Z,1026.53
2017-05-16T10:40:02.907Z,1026.47
2017-05-16T10:45:02.753Z,1026.46
2017-05-16T10:50:03.192Z,1026.45
2017-05-16T10:55:03.307Z,1026.4
2017-05-16T11:00:02.811Z,1026.36
2017-05-16T11:05:03.633Z,1026.32
2017-05-16T11:10:03.190Z,1026.27
2017-05-16T11:15:02.737Z,1026.14
2017-05-16T11:20:03.256Z,1026.14
2017-05-16T11:25:03.308Z,1026.08
2017-05-16T11:30:02.871Z,1026.08
2017-05-16T11:35:03.301Z,1026
2017-05-16T11:40:02.921Z,1025.92
2017-05-16T11:45:03.653Z,1025.94
2017-05-16T11:50:03.143Z,1025.92
2017-05-16T11:55:03.348Z,1025.85
2017-05-16T12:00:03.383Z,1025.84
2017-05-16T12:05:03.428Z,1025.76
2017-05-16T12:10:02.863Z,1025.75
2017-05-16T12:15:03.513Z,1025.82
2017-05-16T12:20:03.124Z,1025.73
2017-05-16T12:25:03.005Z,1025.61
2017-05-16T12:30:03.466Z,1025.53
2017-05-16T12:35:03.463Z,1025.49
2017-05-16T12:40:03.394Z,1025.42
2017-05-16T12:45:03.154Z,1025.35
2017-05-16T12:50:02.811Z,1025.36
2017-05-16T12:55:03.286Z,1025.32
2017-05-16T13:00:02.982Z,1025.38
2017-05-16T13:05:03.306Z,1025.37
2017-05-16T13:10:02.939Z,1025.35
2017-05-16T13:15:02.779Z,1025.23
2017-05-16T13:20:03.118Z,1025.22
2017-05-16T13:25:03.465Z,1025.26
2017-05-16T13:30:03.172Z,1025.25
2017-05-16T13:35:03.418Z,1025.21
2017-05-16T13:40:03.189Z,1025.25
2017-05-16T13:45:03.583Z,1025.15
2017-05-16T13:50:02.905Z,1025.21
2017-05-16T13:55:03.312Z,1025.17
2017-05-16T14:00:03.024Z,1025.15
2017-05-16T14:05:03.474Z,1025.08
2017-05-16T14:10:03.144Z,1025.1
2017-05-16T14:15:02.695Z,1025.11
2017-05-16T14:20:03.179Z,1024.99
2017-05-16T14:25:02.790Z,1025.05
2017-05-16T14:30:03.527Z,1024.93
2017-05-16T14:35:03.229Z,1024.88
2017-05-16T14:40:02.714Z,1024.89
2017-05-16T14:45:03.234Z,1024.85
2017-05-16T14:50:02.924Z,1024.84
2017-05-16T14:55:03.439Z,1024.82
2017-05-16T15:00:02.977Z,1024.85
2017-05-16T15:05:03.473Z,1024.8
2017-05-16T15:10:03.270Z,1024.84
2017-05-16T15:15:02.967Z,1024.73
2017-05-16T15:20:02.882Z,1024.73
2017-05-16T15:25:02.997Z,1024.83
2017-05-16T15:30:03.443Z,1024.78
2017-05-16T15:35:03.205Z,1024.72
2017-05-16T15:40:03.143Z,1024.79
2017-05-16T15:45:03.065Z,1024.84
2017-05-16T15:50:02.946Z,1024.83
2017-05-16T15:55:02.795Z,1024.84
2017-05-16T16:00:03.588Z,1024.78
2017-05-16T16:05:03.436Z,1024.72
2017-05-16T16:10:03.605Z,1024.66
2017-05-16T16:15:02.832Z,1024.7
2017-05-16T16:20:03.343Z,1024.67
2017-05-16T16:25:02.980Z,1024.65
2017-05-16T16:30:02.679Z,1024.57
2017-05-16T16:35:03.330Z,1024.62
2017-05-16T16:40:02.661Z,1024.52
2017-05-16T16:45:03.392Z,1024.5
2017-05-16T16:50:03.616Z,1024.48
2017-05-16T16:55:03.397Z,1024.45
2017-05-16T17:00:02.675Z,1024.44
2017-05-16T17:05:02.819Z,1024.42
2017-05-16T17:10:03.370Z,1024.36
2017-05-16T17:15:03.470Z,1024.42
2017-05-16T17:20:02.748Z,1024.41
2017-05-16T17:25:03.264Z,1024.38
2017-05-16T17:30:02.848Z,1024.4
2017-05-16T17:35:02.792Z,1024.39
2017-05-16T17:40:03.329Z,1024.4
2017-05-16T17:45:03.559Z,1024.42
2017-05-16T17:50:03.498Z,1024.46
2017-05-16T17:55:02.675Z,1024.47
2017-05-16T18:00:03.497Z,1024.46
2017-05-16T18:05:03.401Z,1024.49
2017-05-16T18:10:03.381Z,1024.46
2017-05-16T18:15:03.381Z,1024.49
2017-05-16T18:20:03.497Z,1024.46
2017-05-16T18:25:03.489Z,1024.47
2017-05-16T18:30:03.533Z,1024.48
2017-05-16T18:35:03.356Z,1024.5
2017-05-16T18:40:03.303Z,1024.49
2017-05-16T18:45:03.559Z,1024.47
2017-05-16T18:50:02.723Z,1024.5
2017-05-16T18:55:02.739Z,1024.52
2017-05-16T19:00:03.024Z,1024.52
2017-05-16T19:05:02.746Z,1024.49
2017-05-16T19:10:02.694Z,1024.53
2017-05-16T19:15:03.442Z,1024.51
2017-05-16T19:20:03.350Z,1024.53
2017-05-16T19:25:03.221Z,1024.53
2017-05-16T19:30:03.124Z,1024.55
2017-05-16T19:35:03.026Z,1024.57
2017-05-16T19:40:02.957Z,1024.64
2017-05-16T19:45:02.957Z,1024.64
2017-05-16T19:50:03.639Z,1024.7
2017-05-16T19:55:03.568Z,1024.7
2017-05-16T20:00:03.399Z,1024.69
2017-05-16T20:05:03.154Z,1024.8
2017-05-16T20:10:03.203Z,1024.78
2017-05-16T20:15:03.100Z,1024.78
2017-05-16T20:20:03.486Z,1024.77
2017-05-16T20:25:03.406Z,1024.77
2017-05-16T20:30:03.382Z,1024.78
2017-05-16T20:35:03.455Z,1024.83
2017-05-16T20:40:02.733Z,1024.72
2017-05-16T20:45:03.454Z,1024.74
2017-05-16T20:50:03.396Z,1024.74
2017-05-16T20:55:03.645Z,1024.64
2017-05-16T21:00:03.092Z,1024.64
2017-05-16T21:05:02.945Z,1024.67
2017-05-16T21:10:02.954Z,1024.64
2017-05-16T21:15:03.663Z,1024.65
2017-05-16T21:20:03.481Z,1024.63
2017-05-16T21:25:03.163Z,1024.64
2017-05-16T21:30:02.707Z,1024.62
2017-05-16T21:35:03.562Z,1024.57
2017-05-16T21:40:03.318Z,1024.61
2017-05-16T21:45:03.049Z,1024.59
2017-05-16T21:50:02.839Z,1024.61
2017-05-16T21:55:03.549Z,1024.56
2017-05-16T22:00:03.182Z,1024.64
2017-05-16T22:05:02.949Z,1024.63
2017-05-16T22:10:03.582Z,1024.64
2017-05-16T22:15:03.166Z,1024.59
2017-05-16T22:20:02.737Z,1024.57
2017-05-16T22:25:03.510Z,1024.61
2017-05-16T22:30:03.134Z,1024.56
2017-05-16T22:35:02.756Z,1024.52
2017-05-16T22:40:03.419Z,1024.49
2017-05-16T22:45:02.966Z,1024.45
2017-05-16T22:50:02.738Z,1024.52
2017-05-16T22:55:03.539Z,1024.45
2017-05-16T23:00:03.091Z,1024.4
2017-05-16T23:05:02.900Z,1024.34
2017-05-16T23:10:03.581Z,1024.32
2017-05-16T23:20:04.111Z,1024.15
2017-05-16T23:25:02.928Z,1024.18
2017-05-16T23:30:03.586Z,1024.1
2017-05-16T23:35:03.251Z,1024.05
2017-05-16T23:40:02.975Z,1024.09
2017-05-16T23:45:03.567Z,1024
2017-05-16T23:50:03.211Z,1023.9
2017-05-16T23:55:09.984Z,1023.92
